createdAt,value
2023-01-29T00:00:10.286Z,52.37
2023-01-29T00:02:41.578Z,51.49
2023-01-29T00:05:26.413Z,51.47
2023-01-29T00:07:55.755Z,52.37
2023-01-29T00:10:26.269Z,51.70
2023-01-29T00:12:54.636Z,52.14
2023-01-29T00:15:23.408Z,52.44
2023-01-29T00:17:51.769Z,53.00
2023-01-29T00:20:20.739Z,52.16
2023-01-29T00:22:48.938Z,53.84
2023-01-29T00:25:17.418Z,53.56
2023-01-29T00:27:47.222Z,52.32
2023-01-29T00:30:20.080Z,52.88
2023-01-29T00:32:48.511Z,53.17
2023-01-29T00:35:16.997Z,54.18
2023-01-29T00:37:45.461Z,54.18
2023-01-29T00:40:14.309Z,53.85
2023-01-29T00:43:00.455Z,55.19
2023-01-29T00:45:30.407Z,53.98
2023-01-29T00:47:58.932Z,54.21
2023-01-29T00:50:27.206Z,54.28
2023-01-29T00:52:55.730Z,54.36
2023-01-29T00:55:24.367Z,54.32
2023-01-29T00:57:52.437Z,53.56
2023-01-29T01:00:22.331Z,53.07
2023-01-29T01:03:06.152Z,53.10
2023-01-29T01:05:34.784Z,54.23
2023-01-29T01:08:03.113Z,53.97
2023-01-29T01:10:32.354Z,54.71
2023-01-29T01:13:02.327Z,54.52
2023-01-29T01:15:33.319Z,54.10
2023-01-29T01:18:03.931Z,54.24
2023-01-29T01:20:35.004Z,53.28
2023-01-29T01:23:04.619Z,53.30
2023-01-29T01:25:33.606Z,53.18
2023-01-29T01:28:02.248Z,52.70
2023-01-29T01:30:33.702Z,53.19
2023-01-29T01:33:03.847Z,53.21
2023-01-29T01:35:32.517Z,53.93
2023-01-29T01:38:00.932Z,53.67
2023-01-29T01:40:28.904Z,53.74
2023-01-29T01:42:59.600Z,53.65
2023-01-29T01:45:30.607Z,53.94
2023-01-29T01:48:02.508Z,53.75
2023-01-29T01:50:39.484Z,53.18
2023-01-29T01:53:10.431Z,54.16
2023-01-29T01:55:44.409Z,53.89
2023-01-29T01:58:20.829Z,54.64
2023-01-29T02:00:49.557Z,55.05
2023-01-29T02:03:38.571Z,54.96
2023-01-29T02:06:27.304Z,54.87
2023-01-29T02:09:19.102Z,54.56
2023-01-29T02:11:47.333Z,55.21
2023-01-29T02:14:17.161Z,55.23
2023-01-29T02:16:45.319Z,55.66
2023-01-29T02:19:22.973Z,54.84
2023-01-29T02:22:11.672Z,54.17
2023-01-29T02:25:15.427Z,54.33
2023-01-29T02:28:24.101Z,55.08
2023-01-29T02:31:04.309Z,54.90
2023-01-29T02:33:43.124Z,54.97
2023-01-29T02:36:20.930Z,55.06
2023-01-29T02:38:57.353Z,55.03
2023-01-29T02:41:31.460Z,54.71
2023-01-29T02:44:06.851Z,55.29
2023-01-29T02:46:41.514Z,54.64
2023-01-29T02:49:16.655Z,54.83
2023-01-29T02:51:51.357Z,54.67
2023-01-29T02:54:25.737Z,54.51
2023-01-29T02:56:59.144Z,54.62
2023-01-29T02:59:34.307Z,54.95
2023-01-29T03:02:08.303Z,54.69
2023-01-29T03:04:45.991Z,53.96
2023-01-29T03:07:41.308Z,54.26
2023-01-29T03:10:17.552Z,54.01
2023-01-29T03:12:51.214Z,54.19
2023-01-29T03:15:25.289Z,54.19
2023-01-29T03:18:27.962Z,53.71
2023-01-29T03:21:26.407Z,54.26
2023-01-29T03:24:13.886Z,55.39
2023-01-29T03:27:02.660Z,55.28
2023-01-29T03:29:55.626Z,54.75
2023-01-29T03:32:31.094Z,54.35
2023-01-29T03:35:06.461Z,53.95
2023-01-29T03:37:39.209Z,52.90
2023-01-29T03:40:10.487Z,52.32
2023-01-29T03:42:55.405Z,51.30
2023-01-29T03:45:32.404Z,50.73
2023-01-29T03:48:09.513Z,50.87
2023-01-29T03:50:46.702Z,51.22
2023-01-29T03:53:23.889Z,50.50
2023-01-29T03:55:58.330Z,51.02
2023-01-29T03:58:37.343Z,50.79
2023-01-29T04:01:12.237Z,51.81
2023-01-29T04:03:44.444Z,52.80
2023-01-29T04:06:20.028Z,53.00
2023-01-29T04:09:03.401Z,53.65
2023-01-29T04:11:35.571Z,54.34
2023-01-29T04:14:03.943Z,53.97
2023-01-29T04:16:37.734Z,54.57
2023-01-29T04:19:26.464Z,53.34
2023-01-29T04:22:03.357Z,54.00
2023-01-29T04:24:32.372Z,53.99
2023-01-29T04:27:13.404Z,53.49
2023-01-29T04:29:56.262Z,53.13
2023-01-29T04:32:29.814Z,52.45
2023-01-29T04:35:02.962Z,52.55
2023-01-29T04:37:41.684Z,53.12
2023-01-29T04:40:21.220Z,53.79
2023-01-29T04:42:55.423Z,54.86
2023-01-29T04:45:33.540Z,55.42
2023-01-29T04:48:11.469Z,54.57
2023-01-29T04:50:43.416Z,54.71
2023-01-29T04:53:20.130Z,55.28
2023-01-29T04:55:52.909Z,56.00
2023-01-29T04:58:27.947Z,55.64
2023-01-29T05:00:56.578Z,55.75
2023-01-29T05:03:27.846Z,55.65
2023-01-29T05:05:58.574Z,56.11
2023-01-29T05:08:31.747Z,55.54
2023-01-29T05:11:01.759Z,55.70
2023-01-29T05:13:31.979Z,56.50
2023-01-29T05:16:04.709Z,55.75
2023-01-29T05:18:33.313Z,56.06
2023-01-29T05:21:07.146Z,55.86
2023-01-29T05:23:37.062Z,55.64
2023-01-29T05:26:06.414Z,55.97
2023-01-29T05:28:33.912Z,55.97
2023-01-29T05:31:02.010Z,56.39
2023-01-29T05:33:31.907Z,55.32
2023-01-29T05:36:01.112Z,56.07
2023-01-29T05:38:29.173Z,55.69
2023-01-29T05:41:01.129Z,55.44
2023-01-29T05:43:29.241Z,55.77
2023-01-29T05:45:59.386Z,56.15
2023-01-29T05:48:30.074Z,55.23
2023-01-29T05:51:01.823Z,55.32
2023-01-29T05:53:30.517Z,55.29
2023-01-29T05:56:02.484Z,55.71
2023-01-29T05:58:32.240Z,54.95
2023-01-29T06:01:09.781Z,54.60
2023-01-29T06:03:38.027Z,54.55
2023-01-29T06:06:06.620Z,55.41
2023-01-29T06:08:34.909Z,54.13
2023-01-29T06:11:05.388Z,53.93
2023-01-29T06:13:33.501Z,53.43
2023-01-29T06:16:01.634Z,54.36
2023-01-29T06:18:29.892Z,52.99
2023-01-29T06:21:02.030Z,52.90
2023-01-29T06:23:30.696Z,53.37
2023-01-29T06:26:01.627Z,53.60
2023-01-29T06:28:31.975Z,53.44
2023-01-29T06:31:12.014Z,53.36
2023-01-29T06:33:48.978Z,53.21
2023-01-29T06:36:17.112Z,52.60
2023-01-29T06:38:45.379Z,51.84
2023-01-29T06:41:17.499Z,52.12
2023-01-29T06:43:48.310Z,52.29
2023-01-29T06:46:16.633Z,51.83
2023-01-29T06:48:45.097Z,53.80
2023-01-29T06:51:13.769Z,53.06
2023-01-29T06:53:44.116Z,52.84
2023-01-29T06:56:14.239Z,52.84
2023-01-29T06:58:43.658Z,52.53
2023-01-29T07:01:29.290Z,52.67
2023-01-29T07:04:03.048Z,52.04
2023-01-29T07:06:31.906Z,51.90
2023-01-29T07:09:00.381Z,52.23
2023-01-29T07:11:28.397Z,51.49
2023-01-29T07:13:56.786Z,51.76
2023-01-29T07:16:27.404Z,51.94
2023-01-29T07:18:55.473Z,51.28
2023-01-29T07:21:23.923Z,51.87
2023-01-29T07:23:52.194Z,51.72
2023-01-29T07:26:20.982Z,51.86
2023-01-29T07:28:49.551Z,52.13
2023-01-29T07:31:17.979Z,52.78
2023-01-29T07:33:48.262Z,52.31
2023-01-29T07:36:16.341Z,52.83
2023-01-29T07:38:44.535Z,52.07
2023-01-29T07:41:13.594Z,52.43
2023-01-29T07:43:46.083Z,52.24
2023-01-29T07:46:14.535Z,52.76
2023-01-29T07:48:42.693Z,52.99
2023-01-29T07:51:12.665Z,53.22
2023-01-29T07:53:40.737Z,52.96
2023-01-29T07:56:09.547Z,53.05
2023-01-29T07:58:37.927Z,53.07
2023-01-29T08:01:12.146Z,52.85
2023-01-29T08:04:06.275Z,52.91
2023-01-29T08:06:35.975Z,52.98
2023-01-29T08:09:04.368Z,52.61
2023-01-29T08:11:32.604Z,52.56
2023-01-29T08:14:00.708Z,52.56
2023-01-29T08:16:28.989Z,52.32
2023-01-29T08:18:57.169Z,52.88
2023-01-29T08:21:25.512Z,53.67
2023-01-29T08:23:55.132Z,53.01
2023-01-29T08:26:23.364Z,51.84
2023-01-29T08:28:51.429Z,52.16
2023-01-29T08:31:21.232Z,51.18
2023-01-29T08:33:49.825Z,51.18
2023-01-29T08:36:18.136Z,51.92
2023-01-29T08:38:46.366Z,51.65
2023-01-29T08:41:16.153Z,51.08
2023-01-29T08:43:44.287Z,50.98
2023-01-29T08:46:12.339Z,52.01
2023-01-29T08:48:41.204Z,51.60
2023-01-29T08:51:10.246Z,51.63
2023-01-29T08:53:38.376Z,50.29
2023-01-29T08:56:07.177Z,50.97
2023-01-29T08:58:37.045Z,49.65
2023-01-29T09:01:09.590Z,49.92
2023-01-29T09:03:40.946Z,50.49
2023-01-29T09:06:10.994Z,49.93
2023-01-29T09:08:39.713Z,51.52
2023-01-29T09:11:07.999Z,52.21
2023-01-29T09:13:38.021Z,52.09
2023-01-29T09:16:06.707Z,51.91
2023-01-29T09:18:34.853Z,52.78
2023-01-29T09:21:03.663Z,51.81
2023-01-29T09:23:31.705Z,52.15
2023-01-29T09:26:01.367Z,52.21
2023-01-29T09:28:30.099Z,52.02
2023-01-29T09:31:02.225Z,52.23
2023-01-29T09:33:32.712Z,52.32
2023-01-29T09:36:00.995Z,53.88
2023-01-29T09:38:29.089Z,52.95
2023-01-29T09:41:05.379Z,52.34
2023-01-29T09:43:44.133Z,51.75
2023-01-29T09:46:22.158Z,51.37
2023-01-29T09:49:03.188Z,52.24
2023-01-29T09:51:36.666Z,51.33
2023-01-29T09:54:17.408Z,52.31
2023-01-29T09:56:47.741Z,51.36
2023-01-29T09:59:20.163Z,51.52
2023-01-29T10:02:00.628Z,52.54
2023-01-29T10:04:50.872Z,52.24
2023-01-29T10:07:35.441Z,51.92
2023-01-29T10:10:19.864Z,51.56
2023-01-29T10:12:59.878Z,51.59
2023-01-29T10:15:42.660Z,51.82
2023-01-29T10:18:38.641Z,50.41
2023-01-29T10:21:20.884Z,49.99
2023-01-29T10:23:52.258Z,49.98
2023-01-29T10:26:24.804Z,49.59
2023-01-29T10:28:56.261Z,49.60
2023-01-29T10:31:35.280Z,48.86
2023-01-29T10:34:13.122Z,50.21
2023-01-29T10:36:45.062Z,50.38
2023-01-29T10:39:17.956Z,50.36
2023-01-29T10:42:03.509Z,50.34
2023-01-29T10:44:45.481Z,51.68
2023-01-29T10:47:41.708Z,50.84
2023-01-29T10:50:22.541Z,51.05
2023-01-29T10:53:06.213Z,51.19
2023-01-29T10:55:45.571Z,50.34
2023-01-29T10:58:27.693Z,50.50
2023-01-29T11:00:55.679Z,51.57
2023-01-29T11:03:28.313Z,51.19
2023-01-29T11:06:04.335Z,51.30
2023-01-29T11:08:38.563Z,51.45
2023-01-29T11:11:10.473Z,50.68
2023-01-29T11:13:44.024Z,49.37
2023-01-29T11:16:12.886Z,49.00
2023-01-29T11:18:58.754Z,49.35
2023-01-29T11:21:30.468Z,49.19
2023-01-29T11:24:12.700Z,50.95
2023-01-29T11:26:43.486Z,50.78
2023-01-29T11:29:35.988Z,50.23
2023-01-29T11:32:07.645Z,50.95
2023-01-29T11:34:35.764Z,50.03
2023-01-29T11:37:16.308Z,51.22
2023-01-29T11:39:47.240Z,50.09
2023-01-29T11:42:21.979Z,50.22
2023-01-29T11:44:50.794Z,49.98
2023-01-29T11:47:21.418Z,50.54
2023-01-29T11:49:51.749Z,50.39
2023-01-29T11:52:24.185Z,49.79
2023-01-29T11:54:57.134Z,48.45
2023-01-29T11:57:32.042Z,49.84
2023-01-29T12:00:04.275Z,50.10
2023-01-29T12:02:38.257Z,49.96
2023-01-29T12:05:15.726Z,50.54
2023-01-29T12:07:49.084Z,51.82
2023-01-29T12:10:32.846Z,51.49
2023-01-29T12:13:19.216Z,50.89
2023-01-29T12:15:48.873Z,51.59
2023-01-29T12:18:26.070Z,51.68
2023-01-29T12:20:58.683Z,51.57
2023-01-29T12:23:37.239Z,51.26
2023-01-29T12:26:10.694Z,51.10
2023-01-29T12:28:47.999Z,51.12
2023-01-29T12:31:28.543Z,50.55
2023-01-29T12:34:03.475Z,48.84
2023-01-29T12:36:38.344Z,49.30
2023-01-29T12:39:11.699Z,48.33
2023-01-29T12:41:46.163Z,48.13
2023-01-29T12:44:18.226Z,48.82
2023-01-29T12:46:50.735Z,49.32
2023-01-29T12:49:24.421Z,50.28
2023-01-29T12:52:00.269Z,49.64
2023-01-29T12:54:36.479Z,49.78
2023-01-29T12:57:09.660Z,49.21
2023-01-29T12:59:43.217Z,48.78
2023-01-29T13:02:24.960Z,49.55
2023-01-29T13:04:59.063Z,48.57
2023-01-29T13:07:32.148Z,49.40
2023-01-29T13:10:08.739Z,49.04
2023-01-29T13:12:38.295Z,50.51
2023-01-29T13:15:18.610Z,51.45
2023-01-29T13:17:52.155Z,50.71
2023-01-29T13:20:25.753Z,50.04
2023-01-29T13:22:57.577Z,50.43
2023-01-29T13:25:27.348Z,50.57
2023-01-29T13:27:56.565Z,49.85
2023-01-29T13:30:31.088Z,50.42
2023-01-29T13:33:10.483Z,50.53
2023-01-29T13:35:42.696Z,50.36
2023-01-29T13:38:25.654Z,50.93
2023-01-29T13:41:00.436Z,50.41
2023-01-29T13:43:29.170Z,50.65
2023-01-29T13:45:57.240Z,50.66
2023-01-29T13:48:28.528Z,50.97
2023-01-29T13:50:58.666Z,49.94
2023-01-29T13:53:30.632Z,50.05
2023-01-29T13:56:31.326Z,50.32
2023-01-29T13:58:59.888Z,49.52
2023-01-29T14:02:04.119Z,50.51
2023-01-29T14:04:34.203Z,50.41
2023-01-29T14:07:04.552Z,50.09
2023-01-29T14:10:03.435Z,50.18
2023-01-29T14:12:40.021Z,51.10
2023-01-29T14:15:23.309Z,52.17
2023-01-29T14:18:04.073Z,51.55
2023-01-29T14:20:45.430Z,51.69
2023-01-29T14:23:25.729Z,53.10
2023-01-29T14:25:54.093Z,53.35
2023-01-29T14:28:27.302Z,53.95
2023-01-29T14:30:56.624Z,53.85
2023-01-29T14:33:28.520Z,53.53
2023-01-29T14:35:59.618Z,54.70
2023-01-29T14:38:29.702Z,53.67
2023-01-29T14:41:08.651Z,54.68
2023-01-29T14:43:38.282Z,54.93
2023-01-29T14:46:44.572Z,54.86
2023-01-29T14:49:12.945Z,53.36
2023-01-29T14:51:45.803Z,54.09
2023-01-29T14:54:24.200Z,52.82
2023-01-29T14:57:00.504Z,52.00
2023-01-29T14:59:37.480Z,53.31
2023-01-29T15:02:16.831Z,53.63
2023-01-29T15:04:49.636Z,54.37
2023-01-29T15:07:28.978Z,53.48
2023-01-29T15:10:21.063Z,53.25
2023-01-29T15:12:55.423Z,53.01
2023-01-29T15:15:34.693Z,52.07
2023-01-29T15:18:07.029Z,51.34
2023-01-29T15:20:37.386Z,51.72
2023-01-29T15:23:23.867Z,52.33
2023-01-29T15:25:55.419Z,52.74
2023-01-29T15:28:23.916Z,53.15
2023-01-29T15:30:57.117Z,52.78
2023-01-29T15:33:25.907Z,52.93
2023-01-29T15:36:06.916Z,53.37
2023-01-29T15:38:38.445Z,52.69
2023-01-29T15:41:19.680Z,53.15
2023-01-29T15:43:49.637Z,53.09
2023-01-29T15:46:26.471Z,52.57
2023-01-29T15:48:56.132Z,51.04
2023-01-29T15:51:27.069Z,51.64
2023-01-29T15:53:57.568Z,52.19
2023-01-29T15:56:29.593Z,51.30
2023-01-29T15:59:00.528Z,54.25
2023-01-29T16:01:30.945Z,51.66
2023-01-29T16:04:02.509Z,51.86
2023-01-29T16:06:35.159Z,52.57
2023-01-29T16:09:06.137Z,52.51
2023-01-29T16:11:35.589Z,52.60
2023-01-29T16:14:05.164Z,52.66
2023-01-29T16:16:35.041Z,52.77
2023-01-29T16:19:15.762Z,51.89
2023-01-29T16:21:46.180Z,52.75
2023-01-29T16:24:22.363Z,52.12
2023-01-29T16:26:53.143Z,52.96
2023-01-29T16:29:23.713Z,52.09
2023-01-29T16:32:00.702Z,53.27
2023-01-29T16:34:33.939Z,53.12
2023-01-29T16:37:05.550Z,52.94
2023-01-29T16:39:37.822Z,52.00
2023-01-29T16:42:25.877Z,53.01
2023-01-29T16:45:26.984Z,52.69
2023-01-29T16:48:03.913Z,52.77
2023-01-29T16:50:40.739Z,52.34
2023-01-29T16:53:22.114Z,52.68
2023-01-29T16:55:53.428Z,52.35
2023-01-29T16:58:26.035Z,52.32
2023-01-29T17:00:57.954Z,52.64
2023-01-29T17:03:29.320Z,53.89
2023-01-29T17:05:58.127Z,54.20
2023-01-29T17:08:28.836Z,54.04
2023-01-29T17:10:57.542Z,53.62
2023-01-29T17:13:29.877Z,54.22
2023-01-29T17:16:02.918Z,53.78
2023-01-29T17:18:32.905Z,53.79
2023-01-29T17:21:01.155Z,53.68
2023-01-29T17:23:29.558Z,52.11
2023-01-29T17:25:58.513Z,53.67
2023-01-29T17:28:28.079Z,52.24
2023-01-29T17:31:05.896Z,53.16
2023-01-29T17:33:38.834Z,53.60
2023-01-29T17:36:12.099Z,53.53
2023-01-29T17:38:41.104Z,51.98
2023-01-29T17:41:14.493Z,52.62
2023-01-29T17:43:44.235Z,51.76
2023-01-29T17:46:15.499Z,52.80
2023-01-29T17:48:46.227Z,52.20
2023-01-29T17:51:16.891Z,52.62
2023-01-29T17:53:47.172Z,50.88
2023-01-29T17:56:18.047Z,50.82
2023-01-29T17:58:46.288Z,50.42
2023-01-29T18:01:14.521Z,51.70
2023-01-29T18:03:42.693Z,51.97
2023-01-29T18:06:21.527Z,52.54
2023-01-29T18:08:50.109Z,52.60
2023-01-29T18:11:18.149Z,51.54
2023-01-29T18:13:46.455Z,51.62
2023-01-29T18:16:14.601Z,51.30
2023-01-29T18:18:43.026Z,50.94
2023-01-29T18:21:12.624Z,50.45
2023-01-29T18:23:41.141Z,51.56
2023-01-29T18:26:12.253Z,51.37
2023-01-29T18:28:40.558Z,51.51
2023-01-29T18:31:08.970Z,51.60
2023-01-29T18:33:37.746Z,52.32
2023-01-29T18:36:06.778Z,53.21
2023-01-29T18:38:36.391Z,53.66
2023-01-29T18:41:06.003Z,53.61
2023-01-29T18:43:34.237Z,53.81
2023-01-29T18:46:02.523Z,53.74
2023-01-29T18:48:31.135Z,54.32
2023-01-29T18:50:59.512Z,54.33
2023-01-29T18:53:28.042Z,53.78
2023-01-29T18:55:58.686Z,54.70
2023-01-29T18:58:35.330Z,54.47
2023-01-29T19:01:09.417Z,53.34
2023-01-29T19:03:38.167Z,54.79
2023-01-29T19:06:07.949Z,54.05
2023-01-29T19:08:36.263Z,54.02
2023-01-29T19:11:08.334Z,53.72
2023-01-29T19:13:38.118Z,55.37
2023-01-29T19:16:09.195Z,54.66
2023-01-29T19:18:37.593Z,54.00
2023-01-29T19:21:10.167Z,53.89
2023-01-29T19:23:38.321Z,53.61
2023-01-29T19:26:08.489Z,53.24
2023-01-29T19:28:36.980Z,53.73
2023-01-29T19:31:05.395Z,54.00
2023-01-29T19:33:33.913Z,54.57
2023-01-29T19:36:02.834Z,54.41
2023-01-29T19:38:33.667Z,54.38
2023-01-29T19:41:01.851Z,54.01
2023-01-29T19:43:31.777Z,54.94
2023-01-29T19:46:01.584Z,55.32
2023-01-29T19:48:29.880Z,55.09
2023-01-29T19:51:00.355Z,55.39
2023-01-29T19:53:30.068Z,54.65
2023-01-29T19:55:59.427Z,54.36
2023-01-29T19:58:27.726Z,54.15
2023-01-29T20:00:58.595Z,53.99
2023-01-29T20:03:27.987Z,55.47
2023-01-29T20:05:56.063Z,55.47
2023-01-29T20:08:24.955Z,53.93
2023-01-29T20:10:53.401Z,53.69
2023-01-29T20:13:21.483Z,54.77
2023-01-29T20:15:51.251Z,54.10
2023-01-29T20:18:20.961Z,53.27
2023-01-29T20:20:53.185Z,54.14
2023-01-29T20:23:36.269Z,54.16
2023-01-29T20:26:06.602Z,53.56
2023-01-29T20:28:35.841Z,53.55
2023-01-29T20:31:04.839Z,54.17
2023-01-29T20:33:36.988Z,55.03
2023-01-29T20:36:09.206Z,54.44
2023-01-29T20:38:37.581Z,53.94
2023-01-29T20:41:07.623Z,53.50
2023-01-29T20:43:36.536Z,54.66
2023-01-29T20:46:06.477Z,55.01
2023-01-29T20:48:36.336Z,54.82
2023-01-29T20:51:06.642Z,56.09
2023-01-29T20:53:34.898Z,54.34
2023-01-29T20:56:04.765Z,55.63
2023-01-29T20:58:33.434Z,54.35
2023-01-29T21:01:01.809Z,55.49
2023-01-29T21:03:30.655Z,54.49
2023-01-29T21:06:00.197Z,53.03
2023-01-29T21:08:28.900Z,54.61
2023-01-29T21:10:57.078Z,52.94
2023-01-29T21:13:25.153Z,53.78
2023-01-29T21:15:54.001Z,54.94
2023-01-29T21:18:22.638Z,54.81
2023-01-29T21:20:51.331Z,54.28
2023-01-29T21:23:20.871Z,54.60
2023-01-29T21:25:49.182Z,55.76
2023-01-29T21:28:17.605Z,55.64
2023-01-29T21:30:46.607Z,55.99
2023-01-29T21:33:14.714Z,55.47
2023-01-29T21:35:45.141Z,56.38
2023-01-29T21:38:13.138Z,56.04
2023-01-29T21:40:42.468Z,56.14
2023-01-29T21:43:12.805Z,56.31
2023-01-29T21:45:41.811Z,56.08
2023-01-29T21:48:11.002Z,55.01
2023-01-29T21:50:39.501Z,56.33
2023-01-29T21:53:07.878Z,55.55
2023-01-29T21:55:36.145Z,55.92
2023-01-29T21:58:05.591Z,55.62
2023-01-29T22:00:34.110Z,55.76
2023-01-29T22:03:02.776Z,53.38
2023-01-29T22:05:30.852Z,52.72
2023-01-29T22:07:59.392Z,53.52
2023-01-29T22:10:28.642Z,54.06
2023-01-29T22:12:56.861Z,53.61
2023-01-29T22:15:26.439Z,53.57
2023-01-29T22:17:54.500Z,54.13
2023-01-29T22:20:29.764Z,54.42
2023-01-29T22:23:00.517Z,54.12
2023-01-29T22:25:29.241Z,54.80
2023-01-29T22:27:57.489Z,54.59
2023-01-29T22:30:27.630Z,55.37
2023-01-29T22:32:56.309Z,56.21
2023-01-29T22:35:24.503Z,56.13
2023-01-29T22:37:52.471Z,55.36
2023-01-29T22:40:21.157Z,55.47
2023-01-29T22:42:49.584Z,56.87
2023-01-29T22:45:18.087Z,55.43
2023-01-29T22:47:47.848Z,56.00
2023-01-29T22:50:16.311Z,56.31
2023-01-29T22:52:53.617Z,56.36
2023-01-29T22:55:21.954Z,56.34
2023-01-29T22:57:50.867Z,55.53
2023-01-29T23:00:20.164Z,55.17
2023-01-29T23:02:50.171Z,56.04
2023-01-29T23:05:18.920Z,56.21
2023-01-29T23:07:47.357Z,56.21
2023-01-29T23:10:17.044Z,55.40
2023-01-29T23:12:45.479Z,55.39
2023-01-29T23:15:13.896Z,54.76
2023-01-29T23:17:41.862Z,56.21
2023-01-29T23:20:12.907Z,56.05
2023-01-29T23:22:40.970Z,54.52
2023-01-29T23:25:09.798Z,54.77
2023-01-29T23:27:36.804Z,54.43
2023-01-29T23:30:06.679Z,55.14
2023-01-29T23:32:35.480Z,55.63
2023-01-29T23:35:03.727Z,55.46
2023-01-29T23:37:33.122Z,54.70
2023-01-29T23:40:01.095Z,54.97
2023-01-29T23:42:29.299Z,55.00
2023-01-29T23:44:57.430Z,54.97
2023-01-29T23:47:25.743Z,54.39
2023-01-29T23:49:53.906Z,54.78
2023-01-29T23:52:22.050Z,53.84
2023-01-29T23:54:51.449Z,53.24
2023-01-29T23:57:19.503Z,54.22
2023-01-29T23:59:47.685Z,52.33
